In Rescue
 
Open Full Screen Window  High Contrast Mode
Wind Gusting 00 knots
09
September 23, 2021 1:09 PM EDT
Present Weather: Light Drizzle
Weather Information
Wind Direction
  310 °
Wind Speed
  09 kt (10 mph)
Wind Gust
  00 kt (0 mph)
Altimeter
29.69 in
Visibility
5 SM
Temperature
12° C
54° F
Dewpoint
11° C
52° F
Humidity
94%
Sky Condition
Overcast @ 800 ft
IFR

METAR KRNP 231709Z AUTO 31009KT 5SM -DZ OVC008 12/11 A2969 RMK AO2 T01160107

FAA Disclaimer: The data displayed is for advisory purposes only and is not to be used for flight planning or operations.